sensor_id;sensor_type;location;lat;lon;timestamp;pressure;altitude;pressure_sealevel;temperature;humidity
58686;BME280;44465;53.206;-6.106;2022-09-12T00:01:22;100830.69;;;22.70;57.51
58686;BME280;44465;53.206;-6.106;2022-09-12T00:03:55;100830.69;;;22.70;57.47
58686;BME280;44465;53.206;-6.106;2022-09-12T00:06:23;100832.50;;;22.69;57.62
58686;BME280;44465;53.206;-6.106;2022-09-12T00:09:00;100827.31;;;22.66;57.76
58686;BME280;44465;53.206;-6.106;2022-09-12T00:11:26;100825.53;;;22.67;57.92
58686;BME280;44465;53.206;-6.106;2022-09-12T00:14:00;100819.28;;;22.66;57.74
58686;BME280;44465;53.206;-6.106;2022-09-12T00:16:27;100814.09;;;22.63;57.99
58686;BME280;44465;53.206;-6.106;2022-09-12T00:18:53;100820.16;;;22.67;57.95
58686;BME280;44465;53.206;-6.106;2022-09-12T00:21:19;100825.53;;;22.67;57.97
58686;BME280;44465;53.206;-6.106;2022-09-12T00:23:45;100823.56;;;22.69;57.82
58686;BME280;44465;53.206;-6.106;2022-09-12T00:26:12;100825.41;;;22.68;57.73
58686;BME280;44465;53.206;-6.106;2022-09-12T00:28:39;100828.94;;;22.69;57.61
58686;BME280;44465;53.206;-6.106;2022-09-12T00:31:07;100826.19;;;22.70;57.47
58686;BME280;44465;53.206;-6.106;2022-09-12T00:33:33;100825.31;;;22.70;57.66
58686;BME280;44465;53.206;-6.106;2022-09-12T00:36:06;100821.84;;;22.68;57.88
58686;BME280;44465;53.206;-6.106;2022-09-12T00:38:33;100825.53;;;22.67;57.95
58686;BME280;44465;53.206;-6.106;2022-09-12T00:41:03;100831.75;;;22.67;57.74
58686;BME280;44465;53.206;-6.106;2022-09-12T00:46:34;100829.22;;;22.64;57.65
58686;BME280;44465;53.206;-6.106;2022-09-12T00:51:41;100834.53;;;22.66;57.97
58686;BME280;44465;53.206;-6.106;2022-09-12T00:54:12;100835.47;;;22.65;57.82
58686;BME280;44465;53.206;-6.106;2022-09-12T00:56:42;100841.53;;;22.68;57.89
58686;BME280;44465;53.206;-6.106;2022-09-12T00:59:14;100844.22;;;22.68;57.69
58686;BME280;44465;53.206;-6.106;2022-09-12T01:01:43;100841.63;;;22.67;57.90
58686;BME280;44465;53.206;-6.106;2022-09-12T01:04:10;100841.63;;;22.67;57.62
58686;BME280;44465;53.206;-6.106;2022-09-12T01:06:40;100847.66;;;22.70;57.65
58686;BME280;44465;53.206;-6.106;2022-09-12T01:09:08;100841.41;;;22.70;57.85
58686;BME280;44465;53.206;-6.106;2022-09-12T01:11:37;100841.41;;;22.70;57.58
58686;BME280;44465;53.206;-6.106;2022-09-12T01:14:04;100845.81;;;22.71;57.59
58686;BME280;44465;53.206;-6.106;2022-09-12T01:16:31;100842.38;;;22.69;57.81
58686;BME280;44465;53.206;-6.106;2022-09-12T01:19:33;100837.94;;;22.68;57.82
58686;BME280;44465;53.206;-6.106;2022-09-12T01:30:44;100833.75;;;22.64;57.93
58686;BME280;44465;53.206;-6.106;2022-09-12T01:33:31;100827.44;;;22.65;57.70
58686;BME280;44465;53.206;-6.106;2022-09-12T01:41:33;100823.56;;;22.69;57.83
58686;BME280;44465;53.206;-6.106;2022-09-12T01:44:13;100827.22;;;22.68;57.96
58686;BME280;44465;53.206;-6.106;2022-09-12T01:49:29;100816.47;;;22.68;57.82
58686;BME280;44465;53.206;-6.106;2022-09-12T01:52:13;100821.09;;;22.66;57.79
58686;BME280;44465;53.206;-6.106;2022-09-12T01:54:50;100828.22;;;22.67;57.84
58686;BME280;44465;53.206;-6.106;2022-09-12T01:57:22;100822.84;;;22.67;57.94
58686;BME280;44465;53.206;-6.106;2022-09-12T01:59:54;100823.88;;;22.64;57.89
58686;BME280;44465;53.206;-6.106;2022-09-12T02:02:50;100829.16;;;22.66;57.88
58686;BME280;44465;53.206;-6.106;2022-09-12T02:05:54;100826.56;;;22.64;57.80
58686;BME280;44465;53.206;-6.106;2022-09-12T02:08:27;100841.63;;;22.67;57.87
58686;BME280;44465;53.206;-6.106;2022-09-12T02:10:59;100837.94;;;22.68;57.88
58686;BME280;44465;53.206;-6.106;2022-09-12T02:13:35;100832.69;;;22.66;57.74
58686;BME280;44465;53.206;-6.106;2022-09-12T02:16:10;100826.00;;;22.59;57.83
58686;BME280;44465;53.206;-6.106;2022-09-12T02:18:46;100822.13;;;22.63;57.73
58686;BME280;44465;53.206;-6.106;2022-09-12T02:21:17;100825.53;;;22.67;57.91
58686;BME280;44465;53.206;-6.106;2022-09-12T02:23:47;100814.78;;;22.67;57.97
58686;BME280;44465;53.206;-6.106;2022-09-12T02:26:24;100814.78;;;22.67;57.83
58686;BME280;44465;53.206;-6.106;2022-09-12T02:28:53;100814.78;;;22.67;58.00
58686;BME280;44465;53.206;-6.106;2022-09-12T02:31:22;100811.22;;;22.66;58.10
58686;BME280;44465;53.206;-6.106;2022-09-12T02:37:22;100798.69;;;22.67;57.91
58686;BME280;44465;53.206;-6.106;2022-09-12T02:39:51;100800.38;;;22.68;58.07
58686;BME280;44465;53.206;-6.106;2022-09-12T02:42:19;100798.69;;;22.67;57.84
58686;BME280;44465;53.206;-6.106;2022-09-12T02:44:45;100789.63;;;22.68;58.02
58686;BME280;44465;53.206;-6.106;2022-09-12T02:47:26;100787.94;;;22.67;57.72
58686;BME280;44465;53.206;-6.106;2022-09-12T02:49:54;100787.94;;;22.67;57.65
58686;BME280;44465;53.206;-6.106;2022-09-12T02:52:20;100795.88;;;22.68;57.79
58686;BME280;44465;53.206;-6.106;2022-09-12T02:54:46;100801.16;;;22.70;57.73
58686;BME280;44465;53.206;-6.106;2022-09-12T02:57:17;100799.41;;;22.69;57.82
58686;BME280;44465;53.206;-6.106;2022-09-12T02:59:44;100795.78;;;22.70;57.94
58686;BME280;44465;53.206;-6.106;2022-09-12T03:05:06;100799.53;;;22.67;57.86
58686;BME280;44465;53.206;-6.106;2022-09-12T03:21:11;100800.38;;;22.68;57.98
58686;BME280;44465;53.206;-6.106;2022-09-12T03:26:41;100797.91;;;22.65;57.79
58686;BME280;44465;53.206;-6.106;2022-09-12T03:29:09;100810.38;;;22.66;57.94
58686;BME280;44465;53.206;-6.106;2022-09-12T03:31:36;100807.69;;;22.66;57.95
58686;BME280;44465;53.206;-6.106;2022-09-12T03:34:03;100808.06;;;22.59;57.99
58686;BME280;44465;53.206;-6.106;2022-09-12T03:36:30;100799.31;;;22.56;57.91
58686;BME280;44465;53.206;-6.106;2022-09-12T03:38:56;100817.47;;;22.67;58.18
58686;BME280;44465;53.206;-6.106;2022-09-12T03:41:21;100817.72;;;22.62;58.18
58686;BME280;44465;53.206;-6.106;2022-09-12T03:43:47;100823.09;;;22.62;58.13
58686;BME280;44465;53.206;-6.106;2022-09-12T03:46:13;100820.16;;;22.67;58.15
58686;BME280;44465;53.206;-6.106;2022-09-12T03:48:39;100811.13;;;22.68;58.27
58686;BME280;44465;53.206;-6.106;2022-09-12T03:51:08;100821.00;;;22.67;57.96
58686;BME280;44465;53.206;-6.106;2022-09-12T03:53:34;100821.84;;;22.68;58.10
58686;BME280;44465;53.206;-6.106;2022-09-12T03:55:59;100821.00;;;22.67;58.14
58686;BME280;44465;53.206;-6.106;2022-09-12T03:58:29;100821.84;;;22.68;58.03
58686;BME280;44465;53.206;-6.106;2022-09-12T04:00:55;100822.63;;;22.70;57.91
58686;BME280;44465;53.206;-6.106;2022-09-12T04:03:21;100811.31;;;22.65;57.91
58686;BME280;44465;53.206;-6.106;2022-09-12T04:05:46;100808.53;;;22.66;57.91
58686;BME280;44465;53.206;-6.106;2022-09-12T04:08:13;100810.25;;;22.67;57.93
58686;BME280;44465;53.206;-6.106;2022-09-12T04:10:38;100807.69;;;22.66;58.10
58686;BME280;44465;53.206;-6.106;2022-09-12T04:13:04;100802.50;;;22.62;57.79
58686;BME280;44465;53.206;-6.106;2022-09-12T04:15:29;100801.53;;;22.64;58.10
58686;BME280;44465;53.206;-6.106;2022-09-12T04:17:55;100804.31;;;22.62;57.99
58686;BME280;44465;53.206;-6.106;2022-09-12T04:20:20;100795.22;;;22.65;58.06
58686;BME280;44465;53.206;-6.106;2022-09-12T04:22:46;100789.25;;;22.59;58.04
58686;BME280;44465;53.206;-6.106;2022-09-12T04:25:11;100794.28;;;22.66;58.09
58686;BME280;44465;53.206;-6.106;2022-09-12T04:27:38;100809.41;;;22.67;58.15
58686;BME280;44465;53.206;-6.106;2022-09-12T04:30:05;100821.00;;;22.67;57.91
58686;BME280;44465;53.206;-6.106;2022-09-12T04:32:31;100816.47;;;22.68;58.10
58686;BME280;44465;53.206;-6.106;2022-09-12T04:34:56;100827.31;;;22.66;58.05
58686;BME280;44465;53.206;-6.106;2022-09-12T04:37:22;100817.38;;;22.68;57.80
58686;BME280;44465;53.206;-6.106;2022-09-12T04:39:49;100817.47;;;22.67;57.89
58686;BME280;44465;53.206;-6.106;2022-09-12T04:42:15;100814.78;;;22.67;58.17
58686;BME280;44465;53.206;-6.106;2022-09-12T04:44:40;100816.59;;;22.66;58.11
58686;BME280;44465;53.206;-6.106;2022-09-12T04:47:06;100800.78;;;22.61;58.03
58686;BME280;44465;53.206;-6.106;2022-09-12T04:49:32;100805.97;;;22.65;58.18
58686;BME280;44465;53.206;-6.106;2022-09-12T04:51:57;100805.06;;;22.64;58.19
58686;BME280;44465;53.206;-6.106;2022-09-12T04:54:23;100813.06;;;22.66;58.14
58686;BME280;44465;53.206;-6.106;2022-09-12T04:56:50;100813.91;;;22.66;58.09
58686;BME280;44465;53.206;-6.106;2022-09-12T04:59:18;100814.78;;;22.67;58.37
58686;BME280;44465;53.206;-6.106;2022-09-12T05:01:44;100817.53;;;22.65;57.99
58686;BME280;44465;53.206;-6.106;2022-09-12T05:04:10;100814.78;;;22.67;58.17
58686;BME280;44465;53.206;-6.106;2022-09-12T05:06:37;100812.28;;;22.64;57.98
58686;BME280;44465;53.206;-6.106;2022-09-12T05:09:05;100793.97;;;22.56;58.17
58686;BME280;44465;53.206;-6.106;2022-09-12T05:11:33;100817.38;;;22.68;58.01
58686;BME280;44465;53.206;-6.106;2022-09-12T05:13:59;100805.97;;;22.65;58.00
58686;BME280;44465;53.206;-6.106;2022-09-12T05:16:26;100814.84;;;22.65;58.10
58686;BME280;44465;53.206;-6.106;2022-09-12T05:18:52;100821.19;;;22.64;58.15
58686;BME280;44465;53.206;-6.106;2022-09-12T05:21:19;100820.22;;;22.65;58.21
58686;BME280;44465;53.206;-6.106;2022-09-12T05:23:45;100831.91;;;22.64;58.24
58686;BME280;44465;53.206;-6.106;2022-09-12T05:26:15;100832.81;;;22.65;58.18
58686;BME280;44465;53.206;-6.106;2022-09-12T05:28:40;100835.47;;;22.65;58.04
58686;BME280;44465;53.206;-6.106;2022-09-12T05:31:12;100835.47;;;22.65;58.13
58686;BME280;44465;53.206;-6.106;2022-09-12T05:33:39;100834.53;;;22.66;58.04
58686;BME280;44465;53.206;-6.106;2022-09-12T05:36:08;100842.59;;;22.66;58.16
58686;BME280;44465;53.206;-6.106;2022-09-12T05:38:34;100848.91;;;22.65;57.99
58686;BME280;44465;53.206;-6.106;2022-09-12T05:41:04;100853.31;;;22.66;57.69
58686;BME280;44465;53.206;-6.106;2022-09-12T05:43:34;100848.81;;;22.66;57.94
58686;BME280;44465;53.206;-6.106;2022-09-12T05:46:02;100856.00;;;22.66;57.92
58686;BME280;44465;53.206;-6.106;2022-09-12T05:48:28;100861.38;;;22.66;57.99
58686;BME280;44465;53.206;-6.106;2022-09-12T05:51:02;100865.00;;;22.65;58.02
58686;BME280;44465;53.206;-6.106;2022-09-12T05:53:29;100860.59;;;22.64;58.24
58686;BME280;44465;53.206;-6.106;2022-09-12T05:56:03;100857.25;;;22.60;58.09
58686;BME280;44465;53.206;-6.106;2022-09-12T05:58:29;100865.19;;;22.61;58.13
58686;BME280;44465;53.206;-6.106;2022-09-12T06:00:54;100872.28;;;22.62;58.35
58686;BME280;44465;53.206;-6.106;2022-09-12T06:03:21;100868.81;;;22.60;58.16
58686;BME280;44465;53.206;-6.106;2022-09-12T06:05:47;100872.28;;;22.62;58.05
58686;BME280;44465;53.206;-6.106;2022-09-12T06:08:12;100856.56;;;22.56;58.35
58686;BME280;44465;53.206;-6.106;2022-09-12T06:10:37;100845.63;;;22.45;58.24
58686;BME280;44465;53.206;-6.106;2022-09-12T06:13:04;100870.72;;;22.58;58.11
58686;BME280;44465;53.206;-6.106;2022-09-12T06:15:29;100874.88;;;22.64;57.88
58686;BME280;44465;53.206;-6.106;2022-09-12T06:17:54;100874.97;;;22.62;58.05
58686;BME280;44465;53.206;-6.106;2022-09-12T06:20:26;100871.50;;;22.60;58.03
58686;BME280;44465;53.206;-6.106;2022-09-12T06:22:52;100878.59;;;22.61;58.13
58686;BME280;44465;53.206;-6.106;2022-09-12T06:25:18;100865.56;;;22.55;58.44
58686;BME280;44465;53.206;-6.106;2022-09-12T06:27:43;100879.38;;;22.64;58.25
58686;BME280;44465;53.206;-6.106;2022-09-12T06:30:10;100872.28;;;22.62;58.10
58686;BME280;44465;53.206;-6.106;2022-09-12T06:32:36;100873.13;;;22.63;57.98
58686;BME280;44465;53.206;-6.106;2022-09-12T06:35:02;100876.78;;;22.62;58.22
58686;BME280;44465;53.206;-6.106;2022-09-12T06:37:27;100881.19;;;22.63;58.30
58686;BME280;44465;53.206;-6.106;2022-09-12T06:39:53;100881.28;;;22.61;58.12
58686;BME280;44465;53.206;-6.106;2022-09-12T06:42:19;100881.28;;;22.61;58.27
58686;BME280;44465;53.206;-6.106;2022-09-12T06:44:54;100891.19;;;22.61;58.31
58686;BME280;44465;53.206;-6.106;2022-09-12T06:47:20;100877.66;;;22.62;58.22
58686;BME280;44465;53.206;-6.106;2022-09-12T06:49:45;100877.75;;;22.61;57.91
58686;BME280;44465;53.206;-6.106;2022-09-12T06:52:10;100876.78;;;22.62;58.14
58686;BME280;44465;53.206;-6.106;2022-09-12T06:54:36;100876.78;;;22.62;58.14
58686;BME280;44465;53.206;-6.106;2022-09-12T06:57:01;100885.69;;;22.62;58.29
58686;BME280;44465;53.206;-6.106;2022-09-12T06:59:27;100890.97;;;22.64;58.47
58686;BME280;44465;53.206;-6.106;2022-09-12T07:01:52;100894.53;;;22.65;58.17
58686;BME280;44465;53.206;-6.106;2022-09-12T07:04:18;100899.13;;;22.62;58.11
58686;BME280;44465;53.206;-6.106;2022-09-12T07:06:44;100899.13;;;22.62;57.91
58686;BME280;44465;53.206;-6.106;2022-09-12T07:09:12;100897.28;;;22.63;58.12
58686;BME280;44465;53.206;-6.106;2022-09-12T07:11:39;100900.09;;;22.61;58.21
58686;BME280;44465;53.206;-6.106;2022-09-12T07:14:07;100907.19;;;22.62;58.10
58686;BME280;44465;53.206;-6.106;2022-09-12T07:16:35;100909.09;;;22.60;58.35
58686;BME280;44465;53.206;-6.106;2022-09-12T07:19:03;100913.59;;;22.60;58.28
58686;BME280;44465;53.206;-6.106;2022-09-12T07:21:29;100907.34;;;22.59;58.33
58686;BME280;44465;53.206;-6.106;2022-09-12T07:23:55;100917.91;;;22.62;58.29
58686;BME280;44465;53.206;-6.106;2022-09-12T07:26:23;100913.59;;;22.60;58.12
58686;BME280;44465;53.206;-6.106;2022-09-12T07:28:52;100914.44;;;22.60;58.20
58686;BME280;44465;53.206;-6.106;2022-09-12T07:31:21;100907.28;;;22.61;58.12
58686;BME280;44465;53.206;-6.106;2022-09-12T07:33:47;100914.34;;;22.62;58.05
58686;BME280;44465;53.206;-6.106;2022-09-12T07:36:16;100917.91;;;22.62;58.14
58686;BME280;44465;53.206;-6.106;2022-09-12T07:38:42;100919.72;;;22.62;58.32
58686;BME280;44465;53.206;-6.106;2022-09-12T07:41:22;100912.66;;;22.61;57.96
58686;BME280;44465;53.206;-6.106;2022-09-12T07:43:52;100921.56;;;22.61;58.03
58686;BME280;44465;53.206;-6.106;2022-09-12T07:46:19;100924.22;;;22.61;57.87
58686;BME280;44465;53.206;-6.106;2022-09-12T07:48:48;100932.47;;;22.58;57.77
58686;BME280;44465;53.206;-6.106;2022-09-12T07:51:15;100927.03;;;22.60;57.93
58686;BME280;44465;53.206;-6.106;2022-09-12T07:53:41;100927.97;;;22.59;58.14
58686;BME280;44465;53.206;-6.106;2022-09-12T07:56:09;100923.47;;;22.59;58.15
58686;BME280;44465;53.206;-6.106;2022-09-12T07:58:35;100918.09;;;22.59;58.01
58686;BME280;44465;53.206;-6.106;2022-09-12T08:01:07;100918.19;;;22.58;58.00
58686;BME280;44465;53.206;-6.106;2022-09-12T08:03:37;100921.72;;;22.58;57.84
58686;BME280;44465;53.206;-6.106;2022-09-12T08:08:32;100925.97;;;22.62;57.98
58686;BME280;44465;53.206;-6.106;2022-09-12T08:10:58;100926.13;;;22.59;58.00
58686;BME280;44465;53.206;-6.106;2022-09-12T08:13:26;100914.56;;;22.59;57.84
58686;BME280;44465;53.206;-6.106;2022-09-12T08:15:56;100923.28;;;22.62;57.93
58686;BME280;44465;53.206;-6.106;2022-09-12T08:18:22;100929.59;;;22.61;57.72
58686;BME280;44465;53.206;-6.106;2022-09-12T08:20:47;100917.31;;;22.57;57.96
58686;BME280;44465;53.206;-6.106;2022-09-12T08:23:13;100913.00;;;22.55;57.83
58686;BME280;44465;53.206;-6.106;2022-09-12T08:25:38;100922.59;;;22.59;57.81
58686;BME280;44465;53.206;-6.106;2022-09-12T08:28:03;100936.81;;;22.61;58.04
58686;BME280;44465;53.206;-6.106;2022-09-12T08:30:29;100931.50;;;22.59;57.74
58686;BME280;44465;53.206;-6.106;2022-09-12T08:32:54;100943.97;;;22.60;58.20
58686;BME280;44465;53.206;-6.106;2022-09-12T08:35:20;100938.59;;;22.60;58.05
58686;BME280;44465;53.206;-6.106;2022-09-12T08:37:45;100939.66;;;22.58;58.18
58686;BME280;44465;53.206;-6.106;2022-09-12T08:40:14;100933.25;;;22.60;57.95
58686;BME280;44465;53.206;-6.106;2022-09-12T08:42:55;100941.19;;;22.62;57.74
58686;BME280;44465;53.206;-6.106;2022-09-12T08:47:57;100943.03;;;22.61;57.81
58686;BME280;44465;53.206;-6.106;2022-09-12T08:50:23;100936.69;;;22.62;57.63
58686;BME280;44465;53.206;-6.106;2022-09-12T08:55:36;100945.72;;;22.61;57.73
58686;BME280;44465;53.206;-6.106;2022-09-12T09:06:09;100957.44;;;22.75;57.79
58686;BME280;44465;53.206;-6.106;2022-09-12T09:11:31;100958.41;;;22.74;57.71
58686;BME280;44465;53.206;-6.106;2022-09-12T09:16:55;100964.91;;;22.70;57.88
58686;BME280;44465;53.206;-6.106;2022-09-12T09:19:42;100967.69;;;22.68;57.50
58686;BME280;44465;53.206;-6.106;2022-09-12T09:22:22;100975.63;;;22.70;57.73
58686;BME280;44465;53.206;-6.106;2022-09-12T09:24:54;100970.47;;;22.67;57.84
58686;BME280;44465;53.206;-6.106;2022-09-12T09:28:00;100977.53;;;22.68;57.69
58686;BME280;44465;53.206;-6.106;2022-09-12T09:30:28;100978.41;;;22.68;57.80
58686;BME280;44465;53.206;-6.106;2022-09-12T09:32:58;100975.63;;;22.70;57.71
58686;BME280;44465;53.206;-6.106;2022-09-12T09:35:44;100977.53;;;22.68;57.35
58686;BME280;44465;53.206;-6.106;2022-09-12T09:38:33;100982.84;;;22.69;57.61
58686;BME280;44465;53.206;-6.106;2022-09-12T09:43:45;100986.38;;;22.70;57.92
58686;BME280;44465;53.206;-6.106;2022-09-12T09:46:11;100984.28;;;22.75;57.82
58686;BME280;44465;53.206;-6.106;2022-09-12T09:48:44;100982.84;;;22.69;57.43
58686;BME280;44465;53.206;-6.106;2022-09-12T09:51:12;100993.47;;;22.71;57.44
58686;BME280;44465;53.206;-6.106;2022-09-12T09:56:34;100995.59;;;22.66;57.70
58686;BME280;44465;53.206;-6.106;2022-09-12T09:59:19;101007.84;;;22.70;57.79
58686;BME280;44465;53.206;-6.106;2022-09-12T10:02:02;101007.84;;;22.70;57.61
58686;BME280;44465;53.206;-6.106;2022-09-12T10:04:35;101012.25;;;22.71;58.11
58686;BME280;44465;53.206;-6.106;2022-09-12T10:07:04;101007.69;;;22.73;57.57
58686;BME280;44465;53.206;-6.106;2022-09-12T10:09:31;101011.13;;;22.75;57.69
58686;BME280;44465;53.206;-6.106;2022-09-12T10:11:57;101011.75;;;22.64;57.99
58686;BME280;44465;53.206;-6.106;2022-09-12T10:14:37;101011.47;;;22.69;57.76
58686;BME280;44465;53.206;-6.106;2022-09-12T10:19:50;101007.84;;;22.70;57.73
58686;BME280;44465;53.206;-6.106;2022-09-12T10:22:25;101004.38;;;22.68;57.68
58686;BME280;44465;53.206;-6.106;2022-09-12T10:24:57;100999.00;;;22.68;57.74
58686;BME280;44465;53.206;-6.106;2022-09-12T10:27:25;101009.75;;;22.68;57.76
58686;BME280;44465;53.206;-6.106;2022-09-12T10:30:16;101016.16;;;22.65;57.82
58686;BME280;44465;53.206;-6.106;2022-09-12T10:32:45;101017.06;;;22.66;57.98
58686;BME280;44465;53.206;-6.106;2022-09-12T10:35:20;101019.75;;;22.66;57.79
58686;BME280;44465;53.206;-6.106;2022-09-12T10:42:53;101020.50;;;22.68;57.55
58686;BME280;44465;53.206;-6.106;2022-09-12T10:47:57;101006.13;;;22.69;57.61
58686;BME280;44465;53.206;-6.106;2022-09-12T10:50:30;101013.22;;;22.70;57.65
58686;BME280;44465;53.206;-6.106;2022-09-12T11:04:26;101027.78;;;22.66;57.49
58686;BME280;44465;53.206;-6.106;2022-09-12T11:10:00;101027.00;;;22.64;57.65
58686;BME280;44465;53.206;-6.106;2022-09-12T11:25:34;101027.00;;;22.64;57.86
58686;BME280;44465;53.206;-6.106;2022-09-12T11:30:42;101036.59;;;22.68;57.48
58686;BME280;44465;53.206;-6.106;2022-09-12T11:35:50;101046.38;;;22.69;57.72
58686;BME280;44465;53.206;-6.106;2022-09-12T11:38:37;101038.25;;;22.70;57.72
58686;BME280;44465;53.206;-6.106;2022-09-12T11:41:10;101022.44;;;22.66;57.48
58686;BME280;44465;53.206;-6.106;2022-09-12T11:46:13;101037.47;;;22.68;57.80
58686;BME280;44465;53.206;-6.106;2022-09-12T11:51:41;101046.47;;;22.67;57.41
58686;BME280;44465;53.206;-6.106;2022-09-12T12:03:10;101054.53;;;22.67;57.81
58686;BME280;44465;53.206;-6.106;2022-09-12T12:06:04;101056.38;;;22.67;57.61
58686;BME280;44465;53.206;-6.106;2022-09-12T12:08:30;101051.00;;;22.67;57.67
58686;BME280;44465;53.206;-6.106;2022-09-12T12:11:01;101048.38;;;22.65;57.65
58686;BME280;44465;53.206;-6.106;2022-09-12T12:13:39;101049.25;;;22.66;57.72
58686;BME280;44465;53.206;-6.106;2022-09-12T12:16:14;101057.13;;;22.69;57.65
58686;BME280;44465;53.206;-6.106;2022-09-12T12:18:42;101045.63;;;22.67;57.62
58686;BME280;44465;53.206;-6.106;2022-09-12T12:24:09;101043.69;;;22.69;57.41
58686;BME280;44465;53.206;-6.106;2022-09-12T12:34:32;101043.91;;;22.66;57.38
58686;BME280;44465;53.206;-6.106;2022-09-12T12:44:57;101058.06;;;22.68;57.33
58686;BME280;44465;53.206;-6.106;2022-09-12T12:49:56;101059.63;;;22.72;57.49
58686;BME280;44465;53.206;-6.106;2022-09-12T12:52:27;101061.53;;;22.70;57.21
58686;BME280;44465;53.206;-6.106;2022-09-12T12:54:57;101072.09;;;22.73;57.37
58686;BME280;44465;53.206;-6.106;2022-09-12T13:02:35;101073.16;;;22.70;57.30
58686;BME280;44465;53.206;-6.106;2022-09-12T13:05:05;101077.63;;;22.70;57.38
58686;BME280;44465;53.206;-6.106;2022-09-12T13:07:39;101075.91;;;22.69;57.48
58686;BME280;44465;53.206;-6.106;2022-09-12T13:10:06;101078.59;;;22.69;57.47
58686;BME280;44465;53.206;-6.106;2022-09-12T13:12:41;101085.78;;;22.68;57.21
58686;BME280;44465;53.206;-6.106;2022-09-12T13:18:31;101086.66;;;22.69;57.27
58686;BME280;44465;53.206;-6.106;2022-09-12T13:21:09;101091.16;;;22.68;57.22
58686;BME280;44465;53.206;-6.106;2022-09-12T13:23:36;101088.38;;;22.70;57.26
58686;BME280;44465;53.206;-6.106;2022-09-12T13:26:07;101090.13;;;22.71;57.17
58686;BME280;44465;53.206;-6.106;2022-09-12T13:28:34;101100.00;;;22.70;57.28
58686;BME280;44465;53.206;-6.106;2022-09-12T13:31:22;101097.31;;;22.70;57.31
58686;BME280;44465;53.206;-6.106;2022-09-12T13:33:52;101093.75;;;22.70;57.34
58686;BME280;44465;53.206;-6.106;2022-09-12T13:44:25;101100.59;;;22.59;57.61
58686;BME280;44465;53.206;-6.106;2022-09-12T13:46:51;101100.34;;;22.64;57.36
58686;BME280;44465;53.206;-6.106;2022-09-12T13:49:29;101099.38;;;22.65;57.41
58686;BME280;44465;53.206;-6.106;2022-09-12T13:52:07;101098.81;;;22.60;57.32
58686;BME280;44465;53.206;-6.106;2022-09-12T13:54:36;101098.53;;;22.65;57.59
58686;BME280;44465;53.206;-6.106;2022-09-12T13:57:03;101091.25;;;22.67;57.08
58686;BME280;44465;53.206;-6.106;2022-09-12T13:59:37;101105.44;;;22.69;57.30
58686;BME280;44465;53.206;-6.106;2022-09-12T14:02:17;101100.06;;;22.69;57.22
58686;BME280;44465;53.206;-6.106;2022-09-12T14:04:48;101106.31;;;22.69;57.33
58686;BME280;44465;53.206;-6.106;2022-09-12T14:07:56;101098.34;;;22.68;57.42
58686;BME280;44465;53.206;-6.106;2022-09-12T14:12:51;101100.84;;;22.71;57.18
58686;BME280;44465;53.206;-6.106;2022-09-12T14:15:29;101098.53;;;22.65;57.08
58686;BME280;44465;53.206;-6.106;2022-09-12T14:17:57;101097.47;;;22.67;57.06
58686;BME280;44465;53.206;-6.106;2022-09-12T14:20:34;101108.13;;;22.69;57.25
58686;BME280;44465;53.206;-6.106;2022-09-12T14:23:02;101103.69;;;22.68;57.33
58686;BME280;44465;53.206;-6.106;2022-09-12T14:25:35;101105.53;;;22.67;57.10
58686;BME280;44465;53.206;-6.106;2022-09-12T14:28:05;101104.69;;;22.67;57.07
58686;BME280;44465;53.206;-6.106;2022-09-12T14:30:35;101107.38;;;22.67;57.18
58686;BME280;44465;53.206;-6.106;2022-09-12T14:35:37;101097.59;;;22.66;56.82
58686;BME280;44465;53.206;-6.106;2022-09-12T14:38:17;101098.34;;;22.68;57.16
58686;BME280;44465;53.206;-6.106;2022-09-12T14:40:58;101093.06;;;22.66;57.15
58686;BME280;44465;53.206;-6.106;2022-09-12T14:43:29;101093.75;;;22.70;57.20
58686;BME280;44465;53.206;-6.106;2022-09-12T14:46:04;101099.13;;;22.70;56.82
58686;BME280;44465;53.206;-6.106;2022-09-12T14:48:34;101101.81;;;22.70;56.95
58686;BME280;44465;53.206;-6.106;2022-09-12T14:51:02;101106.22;;;22.71;57.01
58686;BME280;44465;53.206;-6.106;2022-09-12T14:53:35;101101.03;;;22.68;57.30
58686;BME280;44465;53.206;-6.106;2022-09-12T14:56:06;101100.00;;;22.70;57.01
58686;BME280;44465;53.206;-6.106;2022-09-12T14:58:32;101097.38;;;22.69;57.01
58686;BME280;44465;53.206;-6.106;2022-09-12T15:01:02;101103.63;;;22.69;57.29
58686;BME280;44465;53.206;-6.106;2022-09-12T15:06:27;101106.38;;;22.68;57.21
58686;BME280;44465;53.206;-6.106;2022-09-12T15:08:54;101103.69;;;22.68;57.28
58686;BME280;44465;53.206;-6.106;2022-09-12T15:11:21;101104.69;;;22.67;57.25
58686;BME280;44465;53.206;-6.106;2022-09-12T15:13:46;101091.44;;;22.64;57.00
58686;BME280;44465;53.206;-6.106;2022-09-12T15:16:12;101107.16;;;22.70;57.24
58686;BME280;44465;53.206;-6.106;2022-09-12T15:18:38;101104.50;;;22.70;57.22
58686;BME280;44465;53.206;-6.106;2022-09-12T15:21:06;101100.84;;;22.71;57.06
58686;BME280;44465;53.206;-6.106;2022-09-12T15:23:35;101107.94;;;22.72;57.34
58686;BME280;44465;53.206;-6.106;2022-09-12T15:26:03;101100.84;;;22.71;57.05
58686;BME280;44465;53.206;-6.106;2022-09-12T15:28:30;101107.94;;;22.72;56.97
58686;BME280;44465;53.206;-6.106;2022-09-12T15:30:56;101115.06;;;22.73;57.06
58686;BME280;44465;53.206;-6.106;2022-09-12T15:33:23;101111.59;;;22.71;56.91
58686;BME280;44465;53.206;-6.106;2022-09-12T15:35:50;101116.19;;;22.69;56.80
58686;BME280;44465;53.206;-6.106;2022-09-12T15:38:17;101116.97;;;22.71;56.72
58686;BME280;44465;53.206;-6.106;2022-09-12T15:40:43;101116.97;;;22.71;56.87
58686;BME280;44465;53.206;-6.106;2022-09-12T15:43:11;101111.97;;;22.65;56.79
58686;BME280;44465;53.206;-6.106;2022-09-12T15:45:37;101115.44;;;22.67;56.94
58686;BME280;44465;53.206;-6.106;2022-09-12T15:48:03;101118.69;;;22.72;57.14
58686;BME280;44465;53.206;-6.106;2022-09-12T15:50:29;101116.19;;;22.69;56.76